createdAt,value
2019-05-25T00:02:23.830Z,2.03
2019-05-25T00:04:53.342Z,2.40
2019-05-25T00:07:22.552Z,2.00
2019-05-25T00:09:51.760Z,2.47
2019-05-25T00:12:24.129Z,2.00
2019-05-25T00:14:53.481Z,2.35
2019-05-25T00:17:22.627Z,2.42
2019-05-25T00:19:51.856Z,2.27
2019-05-25T00:22:22.165Z,2.03
2019-05-25T00:24:51.302Z,2.50
2019-05-25T00:27:20.341Z,2.10
2019-05-25T00:29:49.475Z,2.33
2019-05-25T00:32:19.203Z,2.05
2019-05-25T00:34:48.211Z,2.72
2019-05-25T00:37:17.379Z,1.60
2019-05-25T00:39:46.657Z,1.72
2019-05-25T00:42:17.875Z,2.98
2019-05-25T00:44:47.049Z,1.85
2019-05-25T00:47:19.346Z,1.87
2019-05-25T00:49:48.736Z,3.15
2019-05-25T00:52:18.194Z,2.00
2019-05-25T00:54:50.623Z,2.00
2019-05-25T00:57:19.853Z,2.50
2019-05-25T00:59:48.923Z,2.60
2019-05-25T01:02:18.168Z,1.70
2019-05-25T01:04:47.456Z,2.90
2019-05-25T01:07:16.644Z,1.77
2019-05-25T01:09:46.114Z,2.17
2019-05-25T01:12:15.438Z,2.27
2019-05-25T01:14:44.750Z,2.47
2019-05-25T01:17:14.120Z,3.08
2019-05-25T01:19:43.189Z,1.98
2019-05-25T01:22:12.507Z,2.85
2019-05-25T01:24:44.683Z,2.37
2019-05-25T01:27:12.912Z,2.20
2019-05-25T01:29:42.117Z,2.65
2019-05-25T01:32:11.352Z,2.87
2019-05-25T01:34:40.659Z,3.57
2019-05-25T01:37:09.793Z,2.22
2019-05-25T01:39:39.054Z,2.95
2019-05-25T01:42:08.341Z,3.60
2019-05-25T01:44:37.535Z,1.77
2019-05-25T01:47:06.907Z,2.70
2019-05-25T01:49:36.046Z,2.27
2019-05-25T01:52:05.472Z,2.58
2019-05-25T01:54:34.719Z,3.20
2019-05-25T01:57:04.045Z,2.50
2019-05-25T01:59:33.180Z,1.73
2019-05-25T02:02:02.497Z,2.43
2019-05-25T02:04:31.777Z,2.77
2019-05-25T02:07:01.043Z,3.08
2019-05-25T02:09:30.409Z,2.13
2019-05-25T02:11:59.834Z,3.30
2019-05-25T02:14:29.113Z,2.77
2019-05-25T02:16:58.415Z,2.40
2019-05-25T02:19:27.580Z,2.50
2019-05-25T02:21:56.831Z,3.75
2019-05-25T02:24:26.037Z,2.80
2019-05-25T02:26:55.614Z,2.13
2019-05-25T02:29:24.891Z,2.58
2019-05-25T02:31:54.197Z,2.42
2019-05-25T02:34:23.462Z,3.45
2019-05-25T02:36:52.636Z,2.00
2019-05-25T02:39:21.843Z,3.40
2019-05-25T02:41:51.120Z,2.92
2019-05-25T02:44:20.252Z,2.73
2019-05-25T02:46:49.437Z,3.00
2019-05-25T02:49:18.504Z,3.47
2019-05-25T02:51:47.759Z,2.65
2019-05-25T02:54:17.111Z,3.40
2019-05-25T02:56:46.269Z,3.10
2019-05-25T02:59:18.013Z,2.60
2019-05-25T03:01:47.223Z,2.77
2019-05-25T03:04:17.084Z,3.53
2019-05-25T03:06:46.463Z,2.58
2019-05-25T03:09:18.282Z,2.85
2019-05-25T03:11:49.494Z,2.67
2019-05-25T03:14:19.294Z,3.17
2019-05-25T03:16:48.512Z,2.40
2019-05-25T03:19:20.719Z,2.22
2019-05-25T03:21:50.131Z,2.95
2019-05-25T03:24:19.314Z,3.37
2019-05-25T03:26:48.599Z,3.40
2019-05-25T03:29:18.013Z,2.70
2019-05-25T03:31:47.113Z,2.42
2019-05-25T03:34:16.266Z,2.42
2019-05-25T03:36:45.707Z,3.30
2019-05-25T03:39:15.096Z,2.30
2019-05-25T03:41:44.369Z,2.47
2019-05-25T03:44:13.571Z,3.00
2019-05-25T03:46:45.207Z,3.30
2019-05-25T03:49:14.621Z,2.67
2019-05-25T03:51:43.883Z,2.45
2019-05-25T03:54:13.099Z,3.87
2019-05-25T03:56:42.306Z,3.27
2019-05-25T03:59:11.666Z,2.30
2019-05-25T04:01:40.770Z,2.77
2019-05-25T04:04:09.983Z,2.30
2019-05-25T04:06:39.449Z,2.33
2019-05-25T04:09:08.889Z,2.67
2019-05-25T04:11:38.071Z,2.60
2019-05-25T04:14:08.464Z,2.00
2019-05-25T04:16:37.639Z,2.85
2019-05-25T04:19:06.800Z,2.72
2019-05-25T04:21:36.409Z,2.42
2019-05-25T04:24:05.837Z,2.83
2019-05-25T04:26:34.966Z,2.52
2019-05-25T04:29:04.300Z,3.17
2019-05-25T04:31:33.669Z,2.97
2019-05-25T04:34:02.804Z,2.90
2019-05-25T04:36:31.957Z,3.35
2019-05-25T04:39:01.123Z,1.85
2019-05-25T04:41:30.320Z,2.83
2019-05-25T04:43:59.555Z,2.47
2019-05-25T04:46:29.158Z,2.97
2019-05-25T04:48:58.490Z,2.62
2019-05-25T04:51:27.688Z,2.07
2019-05-25T04:53:56.854Z,2.52
2019-05-25T04:56:38.798Z,2.50
2019-05-25T04:58:57.107Z,2.35
2019-05-25T05:01:26.274Z,2.00
2019-05-25T05:03:55.625Z,2.80
2019-05-25T05:06:24.935Z,2.65
2019-05-25T05:08:54.222Z,2.23
2019-05-25T05:11:23.375Z,2.43
2019-05-25T05:13:52.948Z,2.77
2019-05-25T05:16:26.544Z,3.70
2019-05-25T05:18:55.777Z,2.27
2019-05-25T05:21:28.278Z,1.43
2019-05-25T05:23:57.452Z,2.15
2019-05-25T05:26:26.735Z,1.65
2019-05-25T05:28:56.052Z,2.03
2019-05-25T05:31:25.190Z,1.83
2019-05-25T05:33:54.359Z,1.67
2019-05-25T05:36:24.400Z,1.72
2019-05-25T05:38:55.466Z,2.30
2019-05-25T05:41:25.266Z,1.77
2019-05-25T05:43:56.780Z,2.10
2019-05-25T05:46:28.389Z,2.15
2019-05-25T05:48:58.667Z,1.55
2019-05-25T05:51:37.686Z,2.35
2019-05-25T05:54:06.869Z,1.77
2019-05-25T05:56:36.104Z,2.60
2019-05-25T05:59:05.319Z,2.60
2019-05-25T06:01:34.380Z,2.03
2019-05-25T06:04:03.758Z,2.02
2019-05-25T06:06:32.803Z,1.43
2019-05-25T06:09:02.115Z,2.67
2019-05-25T06:11:31.199Z,2.17
2019-05-25T06:14:00.404Z,2.37
2019-05-25T06:16:29.611Z,2.25
2019-05-25T06:18:58.655Z,3.03
2019-05-25T06:21:27.796Z,3.37
2019-05-25T06:23:56.887Z,2.72
2019-05-25T06:26:26.106Z,2.47
2019-05-25T06:28:55.160Z,4.03
2019-05-25T06:31:24.437Z,2.58
2019-05-25T06:33:53.680Z,4.33
2019-05-25T06:36:23.087Z,2.37
2019-05-25T06:38:52.304Z,2.33
2019-05-25T06:41:21.462Z,3.30
2019-05-25T06:43:50.823Z,2.37
2019-05-25T06:46:20.043Z,3.45
2019-05-25T06:48:49.362Z,2.87
2019-05-25T06:51:18.566Z,2.20
2019-05-25T06:53:47.739Z,2.93
2019-05-25T06:56:16.842Z,2.15
2019-05-25T06:58:46.025Z,2.77
2019-05-25T07:01:15.172Z,2.60
2019-05-25T07:03:44.390Z,2.20
2019-05-25T07:06:13.718Z,2.47
2019-05-25T07:08:42.787Z,2.58
2019-05-25T07:11:11.974Z,2.80
2019-05-25T07:13:41.122Z,2.87
2019-05-25T07:16:10.438Z,2.53
2019-05-25T07:18:39.546Z,3.07
2019-05-25T07:21:08.727Z,4.08
2019-05-25T07:23:38.036Z,3.25
2019-05-25T07:26:07.347Z,2.83
2019-05-25T07:28:36.506Z,2.90
2019-05-25T07:31:05.853Z,2.70
2019-05-25T07:33:35.124Z,2.60
2019-05-25T07:36:07.591Z,3.60
2019-05-25T07:38:35.725Z,2.67
2019-05-25T07:41:05.025Z,2.57
2019-05-25T07:43:34.167Z,3.23
2019-05-25T07:46:03.508Z,2.67
2019-05-25T07:48:32.720Z,1.77
2019-05-25T07:51:01.892Z,3.23
2019-05-25T07:53:31.030Z,2.70
2019-05-25T07:56:00.233Z,2.40
2019-05-25T07:58:29.539Z,3.80
2019-05-25T08:00:58.873Z,4.13
2019-05-25T08:03:28.056Z,3.47
2019-05-25T08:05:57.275Z,2.35
2019-05-25T08:08:26.435Z,2.03
2019-05-25T08:10:55.704Z,3.10
2019-05-25T08:13:24.817Z,3.47
2019-05-25T08:15:54.070Z,3.00
2019-05-25T08:18:23.304Z,3.37
2019-05-25T08:20:54.503Z,2.30
2019-05-25T08:23:23.906Z,3.05
2019-05-25T08:25:53.237Z,3.45
2019-05-25T08:28:32.279Z,2.02
2019-05-25T08:30:53.582Z,4.22
2019-05-25T08:33:29.198Z,3.70
2019-05-25T08:35:58.599Z,3.55
2019-05-25T08:38:28.159Z,3.75
2019-05-25T08:41:00.636Z,3.83
2019-05-25T08:43:29.959Z,3.45
2019-05-25T08:45:59.216Z,3.35
2019-05-25T08:48:28.737Z,4.30
2019-05-25T08:50:59.693Z,2.83
2019-05-25T08:53:40.486Z,3.60
2019-05-25T08:56:01.040Z,3.70
2019-05-25T08:58:30.421Z,2.83
2019-05-25T09:00:59.747Z,3.20
2019-05-25T09:03:29.355Z,3.45
2019-05-25T09:05:58.937Z,3.50
2019-05-25T09:08:28.134Z,4.37
2019-05-25T09:10:57.459Z,2.67
2019-05-25T09:13:27.011Z,3.37
2019-05-25T09:15:56.499Z,3.10
2019-05-25T09:18:26.075Z,4.47
2019-05-25T09:20:58.567Z,2.67
2019-05-25T09:23:28.068Z,3.30
2019-05-25T09:25:57.468Z,3.12
2019-05-25T09:28:26.993Z,3.40
2019-05-25T09:30:56.468Z,4.67
2019-05-25T09:33:25.623Z,3.37
2019-05-25T09:35:54.819Z,4.63
2019-05-25T09:38:24.118Z,4.33
2019-05-25T09:40:53.432Z,3.87
2019-05-25T09:43:22.820Z,3.47
2019-05-25T09:45:52.115Z,2.62
2019-05-25T09:48:21.497Z,4.73
2019-05-25T09:50:50.658Z,2.98
2019-05-25T09:53:19.882Z,3.40
2019-05-25T09:55:49.391Z,2.73
2019-05-25T09:58:18.587Z,2.87
2019-05-25T10:00:47.862Z,3.53
2019-05-25T10:03:16.986Z,2.93
2019-05-25T10:05:46.186Z,3.57
2019-05-25T10:08:15.497Z,3.17
2019-05-25T10:10:44.753Z,2.50
2019-05-25T10:13:13.951Z,2.43
2019-05-25T10:15:43.242Z,2.40
2019-05-25T10:18:12.776Z,2.50
2019-05-25T10:20:42.478Z,3.52
2019-05-25T10:23:11.666Z,3.60
2019-05-25T10:25:40.776Z,3.20
2019-05-25T10:28:09.955Z,3.05
2019-05-25T10:30:39.030Z,3.10
2019-05-25T10:33:08.310Z,2.95
2019-05-25T10:35:38.094Z,2.50
2019-05-25T10:38:09.839Z,3.20
2019-05-25T10:40:40.245Z,3.27
2019-05-25T10:43:10.288Z,2.77
2019-05-25T10:48:11.932Z,2.40
2019-05-25T10:50:44.326Z,2.55
2019-05-25T10:53:16.201Z,2.30
2019-05-25T10:55:55.309Z,3.60
2019-05-25T10:58:26.699Z,2.87
2019-05-25T11:01:04.557Z,3.52
2019-05-25T11:03:40.431Z,2.83
2019-05-25T11:06:12.269Z,2.90
2019-05-25T11:08:53.804Z,3.33
2019-05-25T11:11:25.633Z,3.33
2019-05-25T11:14:00.760Z,2.92
2019-05-25T11:16:35.570Z,2.90
2019-05-25T11:19:10.366Z,3.47
2019-05-25T11:21:40.412Z,3.50
2019-05-25T11:26:39.317Z,3.57
2019-05-25T11:29:08.933Z,3.40
2019-05-25T11:31:37.975Z,3.77
2019-05-25T11:34:07.685Z,2.87
2019-05-25T11:36:37.209Z,2.80
2019-05-25T11:39:07.946Z,3.62
2019-05-25T11:41:37.353Z,2.90
2019-05-25T11:44:09.202Z,3.37
2019-05-25T11:46:38.682Z,2.58
2019-05-25T11:49:21.594Z,3.00
2019-05-25T11:51:39.284Z,2.98
2019-05-25T11:54:08.515Z,3.52
2019-05-25T11:56:37.651Z,3.10
2019-05-25T11:59:06.827Z,3.70
2019-05-25T12:01:35.995Z,3.10
2019-05-25T12:04:05.306Z,3.17
2019-05-25T12:06:34.421Z,3.33
2019-05-25T12:09:04.406Z,2.63
2019-05-25T12:14:01.584Z,2.05
2019-05-25T12:16:30.745Z,2.77
2019-05-25T12:18:59.863Z,2.55
2019-05-25T12:21:29.002Z,2.53
2019-05-25T12:23:58.110Z,3.20
2019-05-25T12:26:29.648Z,1.77
2019-05-25T12:28:58.868Z,2.40
2019-05-25T12:31:27.943Z,2.47
2019-05-25T12:33:57.209Z,2.87
2019-05-25T12:36:26.391Z,2.67
2019-05-25T12:38:55.571Z,2.40
2019-05-25T12:41:24.625Z,3.23
2019-05-25T12:43:57.884Z,2.30
2019-05-25T12:46:27.024Z,2.90
2019-05-25T12:48:56.150Z,3.70
2019-05-25T12:51:25.370Z,2.40
2019-05-25T12:53:54.441Z,2.07
2019-05-25T12:56:23.611Z,2.47
2019-05-25T12:58:52.815Z,2.40
2019-05-25T13:01:22.135Z,3.23
2019-05-25T13:03:51.361Z,2.12
2019-05-25T13:06:20.690Z,2.50
2019-05-25T13:08:49.910Z,3.22
2019-05-25T13:11:19.180Z,2.27
2019-05-25T13:13:48.245Z,3.10
2019-05-25T13:16:17.503Z,2.22
2019-05-25T13:18:46.652Z,3.33
2019-05-25T13:21:15.867Z,2.33
2019-05-25T13:23:45.092Z,2.10
2019-05-25T13:26:14.215Z,2.23
2019-05-25T13:28:43.177Z,3.22
2019-05-25T13:31:12.546Z,3.02
2019-05-25T13:33:41.829Z,2.42
2019-05-25T13:36:11.165Z,4.13
2019-05-25T13:38:40.334Z,2.87
2019-05-25T13:41:12.700Z,2.90
2019-05-25T13:43:41.896Z,2.37
2019-05-25T13:46:11.050Z,3.70
2019-05-25T13:48:40.309Z,2.63
2019-05-25T13:51:09.481Z,3.53
2019-05-25T13:53:38.560Z,3.07
2019-05-25T13:56:07.792Z,2.40
2019-05-25T13:58:39.135Z,2.30
2019-05-25T14:01:07.637Z,3.55
2019-05-25T14:03:36.741Z,2.55
2019-05-25T14:06:06.774Z,3.07
2019-05-25T14:11:04.220Z,2.67
2019-05-25T14:13:33.404Z,3.07
2019-05-25T14:16:07.145Z,4.07
2019-05-25T14:18:33.266Z,3.98
2019-05-25T14:21:02.275Z,3.05
2019-05-25T14:23:31.314Z,3.00
2019-05-25T14:26:00.353Z,2.35
2019-05-25T14:28:29.499Z,3.17
2019-05-25T14:30:58.729Z,3.13
2019-05-25T14:33:27.776Z,3.70
2019-05-25T14:35:56.932Z,3.95
2019-05-25T14:38:25.960Z,3.70
2019-05-25T14:40:54.982Z,3.67
2019-05-25T14:43:33.931Z,2.98
2019-05-25T14:46:03.100Z,3.30
2019-05-25T14:48:32.157Z,3.33
2019-05-25T14:51:01.295Z,4.15
2019-05-25T14:53:30.435Z,3.13
2019-05-25T14:55:59.533Z,3.45
2019-05-25T14:58:28.660Z,2.52
2019-05-25T15:00:57.942Z,4.22
2019-05-25T15:03:27.279Z,2.87
2019-05-25T15:05:56.487Z,2.60
2019-05-25T15:08:25.565Z,2.97
2019-05-25T15:10:54.851Z,3.05
2019-05-25T15:13:24.025Z,2.47
2019-05-25T15:15:53.264Z,2.70
2019-05-25T15:18:22.295Z,2.57
2019-05-25T15:20:51.522Z,2.22
2019-05-25T15:23:20.740Z,2.97
2019-05-25T15:25:49.870Z,3.17
2019-05-25T15:28:19.047Z,2.83
2019-05-25T15:30:48.201Z,3.40
2019-05-25T15:33:19.506Z,3.45
2019-05-25T15:35:49.147Z,2.80
2019-05-25T15:38:18.424Z,2.62
2019-05-25T15:40:47.647Z,2.60
2019-05-25T15:43:16.823Z,2.83
2019-05-25T15:45:45.969Z,2.00
2019-05-25T15:48:15.198Z,2.27
2019-05-25T15:50:44.433Z,3.07
2019-05-25T15:53:16.472Z,2.30
2019-05-25T15:55:45.766Z,2.60
2019-05-25T15:58:14.841Z,2.62
2019-05-25T16:00:48.759Z,4.28
2019-05-25T16:03:19.533Z,2.87
2019-05-25T16:05:49.152Z,2.25
2019-05-25T16:08:19.428Z,2.60
2019-05-25T16:10:48.686Z,2.85
2019-05-25T16:13:17.968Z,2.77
2019-05-25T16:15:47.009Z,2.53
2019-05-25T16:18:16.216Z,1.90
2019-05-25T16:20:45.410Z,2.20
2019-05-25T16:23:14.670Z,2.60
2019-05-25T16:25:43.803Z,3.17
2019-05-25T16:28:12.948Z,2.67
2019-05-25T16:30:42.213Z,3.12
2019-05-25T16:33:14.046Z,4.33
2019-05-25T16:35:42.845Z,2.33
2019-05-25T16:38:12.245Z,2.33
2019-05-25T16:40:41.656Z,3.35
2019-05-25T16:43:10.946Z,2.53
2019-05-25T16:45:40.312Z,2.90
2019-05-25T16:48:09.656Z,4.60
2019-05-25T16:50:39.135Z,4.53
2019-05-25T16:53:08.392Z,4.62
2019-05-25T16:55:37.717Z,4.28
2019-05-25T16:58:13.416Z,2.72
2019-05-25T17:00:44.250Z,6.87
2019-05-25T17:03:27.402Z,4.83
2019-05-25T17:05:46.333Z,3.08
2019-05-25T17:08:15.531Z,8.48
2019-05-25T17:10:54.476Z,8.00
2019-05-25T17:13:24.769Z,4.08
2019-05-25T17:15:57.312Z,4.37
2019-05-25T17:18:26.532Z,2.83
2019-05-25T17:20:55.692Z,2.13
2019-05-25T17:23:25.347Z,4.77
2019-05-25T17:25:54.509Z,7.17
2019-05-25T17:28:26.092Z,9.63
2019-05-25T17:30:55.253Z,7.47
2019-05-25T17:33:24.518Z,4.20
2019-05-25T17:35:53.840Z,1.87
2019-05-25T17:38:23.044Z,2.20
2019-05-25T17:40:52.250Z,4.17
2019-05-25T17:43:21.435Z,2.70
2019-05-25T17:45:50.632Z,2.17
2019-05-25T17:48:22.016Z,3.03
2019-05-25T17:50:51.338Z,2.58
2019-05-25T17:53:20.692Z,2.50
2019-05-25T17:55:49.952Z,3.02
2019-05-25T17:58:19.240Z,2.00
2019-05-25T18:00:51.623Z,2.90
2019-05-25T18:03:20.941Z,2.58
2019-05-25T18:05:50.172Z,2.87
2019-05-25T18:08:19.542Z,2.23
2019-05-25T18:10:53.488Z,2.92
2019-05-25T18:13:19.668Z,3.25
2019-05-25T18:15:48.854Z,2.27
2019-05-25T18:18:18.082Z,2.80
2019-05-25T18:20:47.439Z,3.13
2019-05-25T18:23:16.820Z,2.35
2019-05-25T18:25:46.220Z,2.13
2019-05-25T18:28:15.282Z,3.15
2019-05-25T18:30:44.697Z,3.50
2019-05-25T18:33:13.962Z,2.55
2019-05-25T18:35:43.378Z,2.97
2019-05-25T18:38:31.651Z,2.33
2019-05-25T18:41:00.800Z,2.67
2019-05-25T18:43:29.999Z,2.97
2019-05-25T18:45:59.411Z,3.17
2019-05-25T18:48:28.764Z,3.22
2019-05-25T18:50:58.050Z,3.67
2019-05-25T18:53:27.369Z,3.75
2019-05-25T18:55:56.411Z,3.80
2019-05-25T18:58:25.698Z,3.83
2019-05-25T19:00:54.942Z,4.05
2019-05-25T19:03:24.006Z,3.17
2019-05-25T19:05:53.202Z,3.27
2019-05-25T19:08:22.390Z,3.10
2019-05-25T19:10:52.104Z,3.67
2019-05-25T19:13:21.327Z,3.50
2019-05-25T19:15:50.587Z,3.53
2019-05-25T19:18:19.876Z,3.97
2019-05-25T19:20:49.322Z,3.13
2019-05-25T19:23:18.665Z,3.22
2019-05-25T19:25:47.972Z,2.72
2019-05-25T19:28:17.188Z,3.50
2019-05-25T19:30:46.332Z,3.57
2019-05-25T19:33:15.430Z,3.67
2019-05-25T19:35:44.878Z,3.00
2019-05-25T19:38:14.102Z,2.33
2019-05-25T19:40:43.410Z,2.93
2019-05-25T19:43:12.796Z,3.47
2019-05-25T19:45:42.267Z,3.45
2019-05-25T19:48:11.379Z,3.67
2019-05-25T19:50:40.836Z,3.05
2019-05-25T19:53:10.135Z,2.92
2019-05-25T19:55:39.303Z,4.37
2019-05-25T19:58:08.539Z,3.53
2019-05-25T20:00:37.830Z,3.70
2019-05-25T20:03:07.124Z,3.05
2019-05-25T20:05:37.410Z,2.60
2019-05-25T20:08:06.811Z,3.62
2019-05-25T20:10:36.149Z,2.45
2019-05-25T20:13:05.912Z,3.17
2019-05-25T20:15:34.999Z,3.22
2019-05-25T20:18:04.166Z,3.08
2019-05-25T20:20:33.374Z,3.67
2019-05-25T20:23:02.622Z,3.80
2019-05-25T20:25:31.824Z,3.90
2019-05-25T20:28:01.225Z,3.97
2019-05-25T20:30:30.444Z,3.92
2019-05-25T20:32:59.918Z,4.47
2019-05-25T20:35:32.992Z,4.60
2019-05-25T20:37:59.993Z,4.72
2019-05-25T20:40:29.426Z,4.72
2019-05-25T20:42:58.691Z,4.75
2019-05-25T20:45:28.116Z,5.17
2019-05-25T20:47:57.426Z,6.83
2019-05-25T20:50:26.576Z,5.15
2019-05-25T20:52:55.964Z,5.35
2019-05-25T20:55:25.210Z,5.33
2019-05-25T20:57:54.492Z,4.30
2019-05-25T21:00:24.421Z,4.53
2019-05-25T21:05:23.948Z,3.87
2019-05-25T21:07:53.361Z,4.57
2019-05-25T21:10:22.680Z,5.62
2019-05-25T21:12:52.056Z,4.90
2019-05-25T21:15:21.380Z,4.10
2019-05-25T21:17:50.602Z,4.65
2019-05-25T21:20:19.798Z,5.07
2019-05-25T21:22:48.971Z,5.57
2019-05-25T21:25:18.290Z,4.05
2019-05-25T21:27:47.539Z,5.10
2019-05-25T21:30:16.802Z,4.63
2019-05-25T21:32:46.068Z,4.57
2019-05-25T21:35:17.377Z,4.87
2019-05-25T21:37:46.596Z,4.25
2019-05-25T21:40:16.644Z,4.17
2019-05-25T21:45:14.510Z,4.70
2019-05-25T21:47:43.643Z,4.90
2019-05-25T21:50:14.052Z,5.37
2019-05-25T21:52:43.257Z,4.70
2019-05-25T21:55:12.637Z,4.37
2019-05-25T21:57:41.733Z,4.58
2019-05-25T22:00:13.294Z,5.12
2019-05-25T22:02:42.401Z,5.47
2019-05-25T22:05:11.879Z,5.15
2019-05-25T22:07:41.144Z,6.17
2019-05-25T22:10:10.915Z,6.13
2019-05-25T22:12:40.640Z,5.58
2019-05-25T22:15:11.121Z,6.28
2019-05-25T22:20:09.364Z,7.72
2019-05-25T22:22:38.700Z,5.22
2019-05-25T22:25:08.618Z,5.13
2019-05-25T22:27:37.982Z,4.17
2019-05-25T22:30:07.671Z,5.62
2019-05-25T22:32:36.829Z,4.90
2019-05-25T22:35:06.137Z,5.33
2019-05-25T22:37:54.541Z,5.50
2019-05-25T22:40:23.911Z,5.70
2019-05-25T22:42:53.259Z,5.17
2019-05-25T22:45:22.717Z,6.53
2019-05-25T22:47:52.154Z,5.47
2019-05-25T22:50:21.522Z,5.65
2019-05-25T22:52:50.929Z,6.80
2019-05-25T22:55:20.255Z,6.20
2019-05-25T22:57:49.869Z,4.30
2019-05-25T23:00:20.444Z,6.30
2019-05-25T23:02:49.841Z,5.65
2019-05-25T23:05:19.471Z,5.37
2019-05-25T23:07:49.132Z,5.87
2019-05-25T23:10:18.912Z,5.50
2019-05-25T23:12:48.330Z,4.92
2019-05-25T23:15:18.387Z,6.67
2019-05-25T23:17:47.896Z,5.40
2019-05-25T23:20:17.427Z,5.62
2019-05-25T23:22:47.159Z,5.92
2019-05-25T23:25:16.615Z,6.00
2019-05-25T23:27:45.918Z,6.37
2019-05-25T23:30:15.464Z,5.78
2019-05-25T23:32:44.885Z,5.58
2019-05-25T23:35:14.424Z,4.72
2019-05-25T23:37:43.745Z,6.72
2019-05-25T23:40:13.537Z,6.20
2019-05-25T23:42:43.249Z,5.42
2019-05-25T23:45:14.067Z,7.40
2019-05-25T23:47:43.464Z,5.12
2019-05-25T23:50:13.343Z,5.73
2019-05-25T23:52:43.057Z,4.85
2019-05-25T23:55:12.518Z,4.70
2019-05-25T23:57:42.254Z,4.90
